Time;durP1;ratioP1;P1;durP2;ratioP2;P2;SDS_P1;SDS_P2;PMS_P1;PMS_P2;Temp;Humidity;BMP_temperature;BMP_pressure;BME280_temperature;BME280_humidity;BME280_pressure;Samples;Min_cycle;Max_cycle;Signal;HPM_P1;HPM_P2
2023/08/30 00:01:46;;;;;;;26.70;24.00;;;;;;;24.84;66.87;99862.80;108047;1257;60657;-79
2023/08/30 00:04:14;;;;;;;25.60;23.00;;;;;;;24.77;67.08;99861.47;107868;1257;61196;-77
2023/08/30 00:06:41;;;;;;;25.90;23.40;;;;;;;24.73;67.21;99861.88;107759;1256;73803;-78
2023/08/30 00:09:09;;;;;;;26.20;22.80;;;;;;;24.71;67.39;99861.70;107862;1256;73982;-79
2023/08/30 00:11:37;;;;;;;25.50;22.90;;;;;;;24.68;67.37;99863.44;107891;1256;71541;-80
2023/08/30 00:14:05;;;;;;;24.40;22.00;;;;;;;24.67;67.49;99863.20;107861;1257;61749;-80
2023/08/30 00:16:33;;;;;;;25.40;23.00;;;;;;;24.68;67.53;99865.26;108008;1257;59242;-80
2023/08/30 00:19:01;;;;;;;25.50;23.00;;;;;;;24.69;67.75;99863.46;107800;1260;74781;-80
2023/08/30 00:21:29;;;;;;;26.00;23.30;;;;;;;24.69;67.64;99869.24;107865;1257;71690;-80
2023/08/30 00:23:56;;;;;;;24.40;22.10;;;;;;;24.69;67.67;99865.58;107842;1256;71815;-80
2023/08/30 00:26:25;;;;;;;25.70;23.00;;;;;;;24.71;67.62;99867.31;107828;1256;63109;-79
2023/08/30 00:28:55;;;;;;;25.60;22.90;;;;;;;24.73;67.62;99867.50;108779;1255;59058;-78
2023/08/30 00:31:23;;;;;;;24.60;22.10;;;;;;;24.74;67.52;99868.67;107906;1256;74757;-77
2023/08/30 00:33:51;;;;;;;25.20;22.60;;;;;;;24.74;67.46;99870.46;107808;1256;72683;-78
2023/08/30 00:36:18;;;;;;;26.30;23.60;;;;;;;24.76;67.45;99872.14;108041;1257;71424;-80
2023/08/30 00:38:46;;;;;;;25.40;22.80;;;;;;;24.77;67.42;99877.14;108478;1257;60400;-80
2023/08/30 00:41:14;;;;;;;25.10;22.60;;;;;;;24.78;67.45;99883.48;107759;1257;61094;-79
2023/08/30 00:43:43;;;;;;;26.60;23.90;;;;;;;24.79;67.35;99889.35;107733;1257;75867;-78
2023/08/30 00:46:11;;;;;;;24.60;22.20;;;;;;;24.75;67.41;99892.27;108130;1256;75152;-78
2023/08/30 00:48:39;;;;;;;24.80;22.40;;;;;;;24.73;67.33;99889.52;107749;1257;72614;-78
2023/08/30 00:51:08;;;;;;;26.90;24.00;;;;;;;24.70;67.44;99890.23;108150;1257;60518;-78
2023/08/30 00:53:36;;;;;;;26.10;23.50;;;;;;;24.68;67.70;99887.16;108276;1256;62153;-79
2023/08/30 00:56:04;;;;;;;26.00;22.90;;;;;;;24.66;67.72;99891.05;108191;1256;74597;-77
2023/08/30 00:58:32;;;;;;;26.50;23.40;;;;;;;24.65;67.75;99891.02;107659;1257;71666;-75
2023/08/30 01:01:00;;;;;;;24.60;22.20;;;;;;;24.61;67.97;99896.66;107656;1257;73426;-77
2023/08/30 01:03:28;;;;;;;25.30;22.60;;;;;;;24.56;67.98;99897.69;107665;1256;61296;-77
2023/08/30 01:05:56;;;;;;;25.80;23.20;;;;;;;24.55;68.08;99901.73;107678;1256;61164;-80
2023/08/30 01:08:24;;;;;;;26.00;23.30;;;;;;;24.57;68.06;99900.73;107850;1257;74627;-79
2023/08/30 01:11:16;;;;;;;26.10;23.50;;;;;;;24.59;68.06;99900.77;107761;1256;71678;-79
2023/08/30 01:14:18;;;;;;;25.70;23.20;;;;;;;24.60;67.99;99905.45;107851;1257;72388;-79
2023/08/30 01:16:46;;;;;;;25.10;22.60;;;;;;;24.60;67.94;99901.24;107737;1256;61165;-79
2023/08/30 01:19:39;;;;;;;27.90;24.90;;;;;;;24.58;67.75;99902.40;107798;1256;63700;-79
2023/08/30 01:22:34;;;;;;;25.90;23.50;;;;;;;24.57;67.71;99906.60;108007;1256;75136;-79
2023/08/30 01:25:26;;;;;;;25.50;22.90;;;;;;;24.55;67.64;99903.45;107847;1257;71454;-79
2023/08/30 01:27:54;;;;;;;24.60;22.20;;;;;;;24.53;67.81;99903.58;107831;1260;71272;-79
2023/08/30 01:30:22;;;;;;;26.10;23.50;;;;;;;24.54;67.71;99899.28;107600;1257;62401;-79
2023/08/30 01:32:50;;;;;;;26.00;22.90;;;;;;;24.50;67.84;99902.83;107824;1259;59340;-78
2023/08/30 01:35:19;;;;;;;26.10;23.40;;;;;;;24.45;67.94;99903.14;107798;1256;73571;-78
2023/08/30 01:37:47;;;;;;;27.10;24.20;;;;;;;24.45;67.85;99900.26;107703;1257;72682;-79
2023/08/30 01:40:15;;;;;;;26.10;23.50;;;;;;;24.44;68.06;99904.36;108020;1256;72543;-77
2023/08/30 01:42:44;;;;;;;25.30;22.90;;;;;;;24.40;68.19;99900.37;107688;1256;61775;-77
2023/08/30 01:45:13;;;;;;;26.50;23.80;;;;;;;24.34;68.26;99896.85;107798;1257;60269;-78
2023/08/30 01:47:43;;;;;;;26.00;23.50;;;;;;;24.30;68.31;99898.52;107757;1257;75207;-78
2023/08/30 01:50:11;;;;;;;25.20;22.70;;;;;;;24.25;68.44;99895.75;107599;1257;72866;-79
2023/08/30 01:52:39;;;;;;;27.50;24.80;;;;;;;24.22;68.62;99900.16;107941;1256;72418;-78
2023/08/30 01:55:08;;;;;;;25.70;23.20;;;;;;;24.19;68.75;99900.11;107857;1256;60925;-79
2023/08/30 01:57:35;;;;;;;26.80;24.00;;;;;;;24.09;68.91;99901.35;107782;1256;61518;-79
2023/08/30 02:00:04;;;;;;;27.10;24.40;;;;;;;23.99;69.24;99897.98;107633;1257;74622;-79
2023/08/30 02:02:42;;;;;;;26.70;24.20;;;;;;;23.96;69.57;99899.66;107629;1259;71424;-79
2023/08/30 02:05:09;;;;;;;26.70;24.00;;;;;;;23.98;69.72;99899.99;107870;1259;73265;-78
2023/08/30 02:07:43;;;;;;;27.20;24.30;;;;;;;24.00;69.97;99899.64;107747;1257;61169;-78
2023/08/30 02:10:13;;;;;;;27.10;24.30;;;;;;;24.02;70.02;99899.67;107906;1257;61099;-77
2023/08/30 02:12:49;;;;;;;26.50;23.90;;;;;;;23.99;69.95;99897.45;107766;1257;75160;-77
2023/08/30 02:15:16;;;;;;;28.10;24.90;;;;;;;23.96;70.06;99900.96;107637;1256;73222;-75
2023/08/30 02:17:44;;;;;;;27.50;24.80;;;;;;;23.88;70.16;99901.77;107605;1257;72745;-75
2023/08/30 02:20:12;;;;;;;27.40;24.30;;;;;;;23.78;70.41;99902.20;107611;1257;61082;-77
2023/08/30 02:22:39;;;;;;;26.90;24.30;;;;;;;23.73;70.65;99902.03;107656;1257;61195;-78
2023/08/30 02:25:07;;;;;;;27.70;24.80;;;;;;;23.72;70.89;99906.52;107826;1257;74393;-77
2023/08/30 02:27:35;;;;;;;27.20;24.60;;;;;;;23.74;71.15;99911.65;107659;1257;70846;-79
2023/08/30 02:30:03;;;;;;;27.30;24.70;;;;;;;23.80;71.01;99910.57;107681;1256;71518;-81
2023/08/30 02:32:31;;;;;;;27.70;24.80;;;;;;;23.84;71.03;99912.37;107805;1257;61228;-81
2023/08/30 02:34:59;;;;;;;27.40;24.70;;;;;;;23.86;71.17;99904.94;107619;1262;61122;-79
2023/08/30 02:37:27;;;;;;;26.80;24.10;;;;;;;23.88;70.91;99906.91;107602;1257;74675;-79
2023/08/30 02:39:54;;;;;;;26.80;24.20;;;;;;;23.88;71.12;99905.36;107674;1256;72048;-79
2023/08/30 02:42:22;;;;;;;26.30;23.70;;;;;;;23.92;71.21;99900.89;107491;1257;353030;-78
2023/08/30 02:44:49;;;;;;;27.20;24.40;;;;;;;23.96;71.04;99903.31;107763;1257;60567;-77
2023/08/30 02:47:17;;;;;;;26.40;23.80;;;;;;;24.01;71.04;99901.23;107729;1257;61247;-79
2023/08/30 02:49:44;;;;;;;26.60;24.00;;;;;;;24.05;70.90;99903.16;107751;1256;74047;-79
2023/08/30 02:52:13;;;;;;;26.40;23.80;;;;;;;24.09;70.69;99902.83;107742;1261;72920;-78
2023/08/30 02:54:40;;;;;;;25.80;23.30;;;;;;;24.11;70.65;99903.27;107715;1257;72313;-77
2023/08/30 02:57:08;;;;;;;26.20;23.70;;;;;;;24.14;70.50;99902.60;107601;1258;62491;-79
2023/08/30 02:59:36;;;;;;;26.30;23.80;;;;;;;24.16;70.45;99901.16;107831;1257;61237;-79
2023/08/30 03:02:05;;;;;;;25.60;23.10;;;;;;;24.19;70.20;99901.36;107856;1257;74960;-79
2023/08/30 03:04:34;;;;;;;26.20;23.50;;;;;;;24.21;70.15;99899.98;107715;1257;71660;-79
2023/08/30 03:07:02;;;;;;;26.10;23.60;;;;;;;24.22;69.89;99904.75;107746;1257;71458;-78
2023/08/30 03:09:29;;;;;;;25.80;23.30;;;;;;;24.21;69.76;99903.64;107667;1257;61225;-77
2023/08/30 03:11:57;;;;;;;27.10;24.50;;;;;;;24.21;69.71;99903.96;107578;1257;61138;-76
2023/08/30 03:14:25;;;;;;;27.70;24.80;;;;;;;24.22;69.52;99908.66;107779;1257;76823;-79
2023/08/30 03:16:52;;;;;;;26.90;24.40;;;;;;;24.22;69.25;99906.92;107768;1257;72942;-78
2023/08/30 03:19:20;;;;;;;26.90;24.30;;;;;;;24.17;69.32;99904.60;107651;1257;72827;-78
2023/08/30 03:21:48;;;;;;;27.90;25.30;;;;;;;24.14;69.44;99902.82;107755;1259;61080;-78
2023/08/30 03:24:16;;;;;;;27.20;24.50;;;;;;;24.11;69.30;99908.23;107852;1257;60544;-79
2023/08/30 03:26:44;;;;;;;28.80;26.10;;;;;;;24.09;69.43;99907.29;107908;1257;74653;-78
2023/08/30 03:29:11;;;;;;;27.20;24.60;;;;;;;24.11;69.57;99903.71;108198;1256;72732;-77
2023/08/30 03:31:39;;;;;;;27.10;24.50;;;;;;;24.14;69.54;99907.82;107705;1257;73770;-77
2023/08/30 03:34:07;;;;;;;27.80;24.90;;;;;;;24.19;69.46;99905.02;107580;1260;61640;-77
2023/08/30 03:36:34;;;;;;;26.80;24.10;;;;;;;24.23;69.32;99904.71;107849;1257;61200;-77
2023/08/30 03:39:02;;;;;;;26.40;23.90;;;;;;;24.28;69.16;99902.52;107668;1257;74604;-77
2023/08/30 03:41:30;;;;;;;26.50;23.80;;;;;;;24.33;69.16;99904.16;107552;1256;73334;-78
2023/08/30 03:44:00;;;;;;;27.40;24.80;;;;;;;24.36;69.02;99902.19;107689;1262;71696;-77
2023/08/30 03:46:27;;;;;;;26.50;23.90;;;;;;;24.38;68.97;99902.52;107782;1257;61801;-78
2023/08/30 03:48:56;;;;;;;26.00;23.50;;;;;;;24.41;68.93;99904.63;107822;1257;61388;-78
2023/08/30 03:51:24;;;;;;;25.50;22.90;;;;;;;24.47;68.89;99903.23;107828;1257;74838;-78
2023/08/30 03:53:51;;;;;;;25.30;22.80;;;;;;;24.52;68.73;99902.86;107698;1257;72775;-77
2023/08/30 03:56:20;;;;;;;31.30;24.00;;;;;;;24.57;68.48;99898.80;107655;1257;70884;-77
2023/08/30 03:58:47;;;;;;;24.80;22.40;;;;;;;24.63;68.41;99901.85;107808;1257;61701;-80
2023/08/30 04:01:15;;;;;;;25.60;22.90;;;;;;;24.67;68.13;99897.15;107780;1257;61085;-77
2023/08/30 04:03:42;;;;;;;25.90;23.30;;;;;;;24.71;67.97;99897.67;107629;1262;74790;-76
2023/08/30 04:06:10;;;;;;;26.20;23.40;;;;;;;24.76;67.93;99899.38;107803;1260;71964;-77
2023/08/30 04:08:38;;;;;;;25.50;22.80;;;;;;;24.81;67.74;99902.96;107808;1261;72774;-77
2023/08/30 04:11:06;;;;;;;26.00;23.30;;;;;;;24.85;67.71;99900.82;107690;1257;61769;-77
2023/08/30 04:13:35;;;;;;;24.10;21.90;;;;;;;24.88;67.60;99900.71;107870;1257;61135;-77
2023/08/30 04:16:03;;;;;;;25.10;22.70;;;;;;;24.94;67.72;99903.91;107755;1262;77334;-77
2023/08/30 04:18:31;;;;;;;24.90;22.30;;;;;;;25.00;67.66;99898.61;107695;1258;72947;-76
2023/08/30 04:20:59;;;;;;;24.50;22.20;;;;;;;25.08;67.54;99896.45;107685;1257;71427;-77
2023/08/30 04:23:26;;;;;;;24.20;21.90;;;;;;;25.17;67.38;99897.29;107737;1262;61150;-77
2023/08/30 04:25:54;;;;;;;24.90;22.20;;;;;;;25.25;67.18;99898.25;107899;1260;61073;-75
2023/08/30 04:28:21;;;;;;;24.70;22.30;;;;;;;25.32;66.85;99900.13;107756;1257;74694;-76
2023/08/30 04:30:49;;;;;;;22.90;20.80;;;;;;;25.41;66.58;99904.22;107823;1257;72875;-77
2023/08/30 04:33:17;;;;;;;23.20;20.90;;;;;;;25.51;66.32;99906.21;107803;1262;72450;-78
2023/08/30 04:35:50;;;;;;;23.10;21.00;;;;;;;25.62;66.07;99909.38;107522;1257;61870;-75
2023/08/30 04:38:19;;;;;;;24.60;22.20;;;;;;;25.72;65.82;99911.91;107697;1262;61229;-78
2023/08/30 04:40:48;;;;;;;24.20;22.00;;;;;;;25.83;65.60;99917.03;107701;1257;73415;-77
2023/08/30 04:43:16;;;;;;;21.90;19.80;;;;;;;25.92;65.42;99912.68;107579;1262;71665;-78
2023/08/30 04:45:47;;;;;;;22.70;20.30;;;;;;;26.01;65.01;99910.41;107566;1260;72850;-78
2023/08/30 04:48:15;;;;;;;23.30;21.00;;;;;;;26.09;64.77;99910.09;107765;1262;61657;-74
2023/08/30 04:50:43;;;;;;;22.60;20.30;;;;;;;26.15;64.58;99908.11;107645;1257;61067;-78
2023/08/30 04:53:11;;;;;;;22.70;20.60;;;;;;;26.23;64.17;99906.46;107395;1262;73045;-77
2023/08/30 04:55:38;;;;;;;23.50;21.30;;;;;;;26.30;63.86;99906.60;107635;1261;72875;-77
2023/08/30 04:58:06;;;;;;;23.00;20.70;;;;;;;26.41;63.65;99900.90;107953;1260;74157;-81
2023/08/30 05:00:35;;;;;;;23.50;21.20;;;;;;;26.53;63.55;99895.99;107805;1256;61771;-79
2023/08/30 05:03:03;;;;;;;23.20;20.80;;;;;;;26.65;63.24;99899.52;107621;1257;61202;-77
2023/08/30 05:05:31;;;;;;;23.50;21.00;;;;;;;26.79;62.81;99900.23;107536;1257;73245;-76
2023/08/30 05:07:59;;;;;;;22.40;20.10;;;;;;;26.91;62.57;99897.25;107747;1257;72729;-78
2023/08/30 05:10:27;;;;;;;21.30;19.20;;;;;;;26.97;62.22;99895.64;107888;1257;72812;-79
2023/08/30 05:12:54;;;;;;;22.20;20.00;;;;;;;27.05;61.98;99899.11;107603;1257;61903;-78
2023/08/30 05:15:22;;;;;;;21.70;19.80;;;;;;;27.18;61.51;99900.37;107519;1257;61435;-78
2023/08/30 05:17:50;;;;;;;22.40;20.20;;;;;;;27.30;61.01;99901.13;107840;1257;75135;-77
2023/08/30 05:20:18;;;;;;;22.00;20.00;;;;;;;27.40;60.45;99903.13;107656;1259;62640;-78
2023/08/30 05:22:46;;;;;;;22.20;20.10;;;;;;;27.49;60.25;99904.40;107415;1262;63767;-79
2023/08/30 05:25:13;;;;;;;25.70;23.20;;;;;;;27.58;59.92;99905.30;107741;1257;61100;-77
2023/08/30 05:27:41;;;;;;;26.40;23.50;;;;;;;27.66;59.59;99900.52;107594;1257;61125;-78
2023/08/30 05:30:09;;;;;;;25.60;22.70;;;;;;;27.75;59.62;99901.02;107569;1257;65820;-76
2023/08/30 05:32:37;;;;;;;23.50;21.20;;;;;;;27.86;59.49;99902.40;107632;1256;64323;-82
2023/08/30 05:35:05;;;;;;;22.10;19.90;;;;;;;27.99;59.29;99902.56;107674;1261;62481;-79
2023/08/30 05:37:48;;;;;;;21.80;19.70;;;;;;;28.13;58.88;99905.02;107643;1263;61202;-79
2023/08/30 05:40:42;;;;;;;21.30;19.20;;;;;;;28.28;57.89;99903.20;107523;1263;61087;-80
2023/08/30 05:43:10;;;;;;;20.10;18.40;;;;;;;28.36;57.64;99899.91;107472;1257;64684;-81
2023/08/30 05:45:38;;;;;;;21.00;19.10;;;;;;;28.40;57.42;99899.70;107630;1257;62508;-81
2023/08/30 05:48:08;;;;;;;21.20;19.00;;;;;;;28.47;57.39;99894.65;107605;1257;64999;-80
2023/08/30 05:50:36;;;;;;;21.00;18.90;;;;;;;28.54;57.30;99887.20;107285;1257;60328;-81
2023/08/30 05:53:04;;;;;;;20.80;18.70;;;;;;;28.60;57.14;99889.85;107438;1257;61153;-82
2023/08/30 05:55:32;;;;;;;19.30;17.30;;;;;;;28.69;57.14;99891.65;107534;1258;65745;-79
2023/08/30 05:58:00;;;;;;;19.80;17.90;;;;;;;28.79;56.71;99891.23;107742;1257;64630;-78
2023/08/30 06:00:27;;;;;;;21.20;19.00;;;;;;;28.91;56.38;99891.67;107817;1257;63852;-79
2023/08/30 06:02:55;;;;;;;19.90;17.90;;;;;;;29.05;55.75;99895.41;107494;1257;61511;-79
2023/08/30 06:05:22;;;;;;;20.10;18.20;;;;;;;29.17;55.05;99893.08;107516;1258;61063;-80
2023/08/30 06:07:50;;;;;;;19.40;17.50;;;;;;;29.28;54.63;99893.98;107585;1258;65844;-79
2023/08/30 06:10:18;;;;;;;19.40;17.60;;;;;;;29.40;54.55;99894.78;107678;1257;64014;-79
2023/08/30 06:12:48;;;;;;;20.80;18.80;;;;;;;29.50;54.06;99899.67;107605;1257;63736;-77
2023/08/30 06:15:16;;;;;;;20.20;18.30;;;;;;;29.57;53.70;99900.04;107530;1257;61233;-77
2023/08/30 06:17:43;;;;;;;18.70;16.90;;;;;;;29.63;53.39;99903.33;107598;1257;61129;-79
2023/08/30 06:20:11;;;;;;;18.40;16.60;;;;;;;29.67;52.84;99902.77;107830;1263;65865;-79
2023/08/30 06:22:41;;;;;;;18.80;17.10;;;;;;;29.72;52.70;99904.14;107659;1256;62615;-80
2023/08/30 06:25:12;;;;;;;18.20;16.50;;;;;;;29.77;52.76;99904.90;107854;1260;62453;-80
2023/08/30 06:27:56;;;;;;;18.20;16.40;;;;;;;29.86;52.54;99905.23;107715;1257;61276;-79
2023/08/30 06:30:25;;;;;;;18.30;16.50;;;;;;;29.95;52.31;99900.20;108029;1258;61752;-79
2023/08/30 06:32:52;;;;;;;18.00;16.30;;;;;;;30.03;52.14;99899.20;107786;1257;64894;-79
2023/08/30 06:35:21;;;;;;;19.20;17.40;;;;;;;30.12;52.15;99899.75;107792;1257;64172;-78
2023/08/30 06:37:49;;;;;;;18.00;16.30;;;;;;;30.23;51.89;99901.19;107840;1256;63693;-78
2023/08/30 06:40:16;;;;;;;18.00;16.20;;;;;;;30.33;51.64;99900.39;107630;1261;60080;-78
2023/08/30 06:42:44;;;;;;;17.90;15.60;;;;;;;30.40;51.32;99903.71;107580;1257;61187;-80
2023/08/30 06:45:12;;;;;;;18.00;15.90;;;;;;;30.47;51.36;99903.49;107904;1257;65741;-80
2023/08/30 06:47:39;;;;;;;17.30;14.90;;;;;;;30.54;50.82;99904.52;107876;1257;64636;-80
2023/08/30 06:50:09;;;;;;;17.30;15.20;;;;;;;30.65;50.68;99906.70;107720;1260;63866;-80
2023/08/30 06:52:37;;;;;;;16.70;15.00;;;;;;;30.78;50.33;99905.73;107614;1258;62847;-80
2023/08/30 06:55:05;;;;;;;15.80;14.20;;;;;;;30.87;49.90;99905.39;107725;1257;61215;-79
2023/08/30 06:57:33;;;;;;;16.00;14.20;;;;;;;30.97;49.63;99904.95;107651;1257;66359;-78
2023/08/30 07:00:07;;;;;;;15.40;13.90;;;;;;;31.07;49.43;99907.06;107868;1257;64004;-81
2023/08/30 07:02:37;;;;;;;14.70;13.30;;;;;;;31.15;49.27;99907.74;107627;1257;64113;-81
2023/08/30 07:05:05;;;;;;;14.50;13.20;;;;;;;31.25;48.26;99908.58;108068;1257;61209;-81
2023/08/30 07:07:32;;;;;;;14.40;13.00;;;;;;;31.33;47.72;99909.19;107828;1257;61206;-82
2023/08/30 07:10:00;;;;;;;15.50;12.90;;;;;;;31.42;47.49;99907.59;107804;1258;64584;-80
2023/08/30 07:12:28;;;;;;;14.70;13.10;;;;;;;31.53;47.20;99903.98;107688;1258;63838;-80
2023/08/30 07:14:55;;;;;;;14.70;13.30;;;;;;;31.63;46.64;99904.23;107522;1258;63850;-80
2023/08/30 07:17:23;;;;;;;14.20;12.40;;;;;;;31.68;46.22;99901.95;107373;1258;61317;-81
2023/08/30 07:19:55;;;;;;;14.00;12.60;;;;;;;31.74;46.59;99904.62;107521;1258;61011;-80
2023/08/30 07:22:23;;;;;;;14.50;12.20;;;;;;;31.78;46.69;99905.02;107555;1257;67954;-80
2023/08/30 07:24:51;;;;;;;13.30;12.10;;;;;;;31.87;46.53;99902.46;107718;1258;63928;-79
2023/08/30 07:27:19;;;;;;;13.90;11.90;;;;;;;31.97;46.17;99903.11;107876;1257;64042;-81
2023/08/30 07:29:46;;;;;;;13.20;11.90;;;;;;;32.06;46.07;99908.73;107697;1257;61125;-81
2023/08/30 07:32:14;;;;;;;14.00;12.50;;;;;;;32.14;45.56;99904.73;107799;1257;61040;-82
2023/08/30 07:34:42;;;;;;;16.20;12.80;;;;;;;32.24;45.57;99902.35;107840;1257;64622;-82
2023/08/30 07:37:22;;;;;;;13.30;12.00;;;;;;;32.36;45.76;99901.91;107882;1260;62556;-79
2023/08/30 07:39:51;;;;;;;12.70;11.10;;;;;;;32.48;45.38;99900.86;107675;1260;62614;-79
2023/08/30 07:42:18;;;;;;;13.10;11.40;;;;;;;32.59;44.59;99898.20;107702;1257;61342;-79
2023/08/30 07:44:46;;;;;;;11.30;10.20;;;;;;;32.69;44.39;99895.58;107778;1257;61254;-78
2023/08/30 07:47:14;;;;;;;16.10;11.50;;;;;;;32.77;44.30;99898.35;107706;1257;64757;-79
2023/08/30 07:49:42;;;;;;;12.70;10.70;;;;;;;32.85;44.05;99892.34;107865;1257;63804;-78
2023/08/30 07:52:10;;;;;;;13.00;10.70;;;;;;;32.92;43.39;99891.89;107716;1257;62558;-76
2023/08/30 07:54:39;;;;;;;14.40;11.00;;;;;;;32.95;43.17;99893.40;107665;1257;60987;-78
2023/08/30 07:57:07;;;;;;;16.10;10.50;;;;;;;33.00;42.92;99894.83;107753;1258;61228;-78
2023/08/30 07:59:37;;;;;;;11.90;10.30;;;;;;;33.09;42.21;99893.63;107887;1260;65816;-79
2023/08/30 08:02:07;;;;;;;11.40;10.20;;;;;;;33.22;41.93;99892.27;107745;1258;64956;-80
2023/08/30 08:04:35;;;;;;;12.30;10.20;;;;;;;33.31;42.20;99888.65;108101;1257;63824;-78
2023/08/30 08:07:04;;;;;;;11.90;9.90;;;;;;;33.43;42.01;99889.33;107856;1257;61128;-79
2023/08/30 08:09:33;;;;;;;14.10;10.80;;;;;;;33.50;41.62;99890.95;107882;1257;61083;-81
2023/08/30 08:12:01;;;;;;;10.70;9.40;;;;;;;33.58;41.65;99890.85;107784;1256;66096;-80
2023/08/30 08:14:28;;;;;;;10.90;9.80;;;;;;;33.68;41.38;99890.88;108110;1257;71966;-79
2023/08/30 08:16:56;;;;;;;10.90;9.60;;;;;;;33.75;40.85;99889.91;107710;1258;66184;-80
2023/08/30 08:19:24;;;;;;;10.50;9.40;;;;;;;33.80;40.51;99891.28;107579;1256;61106;-81
2023/08/30 08:21:54;;;;;;;11.40;9.60;;;;;;;33.86;40.43;99895.65;107697;1260;60237;-79
2023/08/30 08:24:23;;;;;;;10.10;9.10;;;;;;;33.94;40.52;99895.77;107578;1260;66698;-78
2023/08/30 08:26:51;;;;;;;10.20;9.10;;;;;;;34.03;40.20;99892.81;107763;1257;63842;-78
2023/08/30 08:29:18;;;;;;;11.50;8.70;;;;;;;34.08;39.82;99891.52;107687;1256;63820;-79
2023/08/30 08:31:46;;;;;;;10.50;9.40;;;;;;;34.07;39.23;99889.02;107703;1256;61317;-79
2023/08/30 08:34:16;;;;;;;14.20;10.10;;;;;;;34.07;39.70;99890.27;107875;1257;59621;-79
2023/08/30 08:36:43;;;;;;;10.70;9.60;;;;;;;34.08;39.80;99888.81;107774;1257;65879;-79
2023/08/30 08:39:13;;;;;;;12.40;9.20;;;;;;;34.14;39.68;99886.15;107537;1257;63214;-76
2023/08/30 08:41:41;;;;;;;11.10;9.90;;;;;;;34.24;39.84;99884.52;107789;1257;63900;-78
2023/08/30 08:44:10;;;;;;;12.00;9.60;;;;;;;34.36;39.48;99885.09;107722;1257;61090;-77
2023/08/30 08:46:39;;;;;;;10.70;9.10;;;;;;;34.48;39.10;99876.05;107860;1256;59068;-80
2023/08/30 08:49:13;;;;;;;12.00;9.10;;;;;;;34.61;37.95;99877.33;107876;1257;76182;-77
2023/08/30 08:51:44;;;;;;;10.90;8.60;;;;;;;34.72;37.90;99875.66;107637;1257;62574;-79
2023/08/30 08:54:12;;;;;;;10.90;8.40;;;;;;;34.82;37.50;99878.97;107669;1260;62554;-79
2023/08/30 08:56:40;;;;;;;9.90;8.00;;;;;;;34.87;37.11;99877.48;107693;1259;61295;-81
2023/08/30 08:59:08;;;;;;;11.10;8.90;;;;;;;34.91;36.52;99872.13;107893;1257;59622;-78
2023/08/30 09:01:39;;;;;;;12.50;9.20;;;;;;;34.94;36.72;99870.92;107793;1257;66127;-78
2023/08/30 09:04:10;;;;;;;12.20;9.50;;;;;;;35.01;36.95;99868.05;107345;1263;62502;-78
2023/08/30 09:06:40;;;;;;;9.60;8.60;;;;;;;35.07;36.83;99862.42;107579;1256;64612;-78
2023/08/30 09:09:08;;;;;;;9.80;8.70;;;;;;;35.14;36.98;99859.66;107728;1256;59442;-78
2023/08/30 09:11:37;;;;;;;10.10;8.30;;;;;;;35.21;36.88;99861.91;107801;1256;61253;-78
2023/08/30 09:14:08;;;;;;;10.00;8.00;;;;;;;35.23;36.28;99855.49;107790;1260;64544;-77
2023/08/30 09:16:36;;;;;;;9.50;8.10;;;;;;;35.25;36.01;99854.65;107719;1256;64158;-82
2023/08/30 09:19:04;;;;;;;9.60;8.20;;;;;;;35.26;35.30;99855.90;108158;1257;62913;-77
2023/08/30 09:21:34;;;;;;;11.40;8.40;;;;;;;35.24;35.23;99854.52;108162;1257;60971;-78
2023/08/30 09:24:03;;;;;;;11.40;8.10;;;;;;;35.22;35.70;99855.95;107657;1257;61105;-79
2023/08/30 09:26:32;;;;;;;10.90;8.40;;;;;;;35.22;36.20;99853.41;107663;1257;77262;-77
2023/08/30 09:29:06;;;;;;;10.20;8.40;;;;;;;35.25;36.20;99852.84;107910;1257;62688;-81
2023/08/30 09:31:35;;;;;;;9.40;8.00;;;;;;;35.29;35.72;99851.45;107849;1260;65983;-79
2023/08/30 09:34:04;;;;;;;12.30;9.20;;;;;;;35.30;35.15;99850.33;108029;1257;59770;-78
2023/08/30 09:36:38;;;;;;;9.30;8.00;;;;;;;35.28;35.28;99846.09;107702;1257;59900;-81
2023/08/30 09:39:10;;;;;;;11.00;8.20;;;;;;;35.29;34.91;99841.78;107740;1257;64586;-78
2023/08/30 09:41:42;;;;;;;12.00;8.50;;;;;;;35.27;35.00;99845.09;107849;1260;63987;-78
2023/08/30 09:44:13;;;;;;;9.10;8.20;;;;;;;35.30;34.97;99844.44;107780;1257;75367;-78
2023/08/30 09:46:52;;;;;;;9.90;7.90;;;;;;;35.30;34.84;99839.11;107700;1257;61260;-82
2023/08/30 09:49:24;;;;;;;10.50;8.30;;;;;;;35.31;34.82;99835.77;108048;1256;61091;-81
2023/08/30 09:51:53;;;;;;;9.70;8.30;;;;;;;35.32;34.65;99831.36;107898;1257;64601;-79
2023/08/30 09:54:25;;;;;;;11.30;8.50;;;;;;;35.32;34.19;99828.37;108874;1256;64179;-78
2023/08/30 09:56:57;;;;;;;9.40;8.40;;;;;;;35.33;34.26;99827.94;108880;1257;63813;-81
2023/08/30 09:59:25;;;;;;;8.40;7.60;;;;;;;35.36;34.35;99825.77;107780;1257;59877;-79
2023/08/30 10:01:53;;;;;;;9.00;8.10;;;;;;;35.40;34.68;99824.30;107790;1256;61235;-80
2023/08/30 10:04:22;;;;;;;10.50;8.30;;;;;;;35.42;34.77;99822.16;107743;1257;66582;-81
2023/08/30 10:06:51;;;;;;;9.10;7.80;;;;;;;35.41;34.36;99823.95;107580;1256;66080;-77
2023/08/30 10:09:21;;;;;;;9.60;8.40;;;;;;;35.42;34.22;99819.95;107803;1258;64859;-80
2023/08/30 10:11:48;;;;;;;9.10;8.20;;;;;;;35.44;34.20;99815.75;107696;1257;61330;-78
2023/08/30 10:14:16;;;;;;;10.40;8.00;;;;;;;35.44;34.17;99814.02;107698;1256;61163;-77
2023/08/30 10:16:48;;;;;;;8.50;7.60;;;;;;;35.44;33.97;99816.71;107703;1257;65936;-81
2023/08/30 10:19:26;;;;;;;9.10;7.70;;;;;;;35.43;33.72;99816.27;107717;1257;64052;-81
2023/08/30 10:21:56;;;;;;;11.50;8.00;;;;;;;35.41;33.66;99808.00;107618;1256;66761;-79
2023/08/30 10:24:24;;;;;;;11.40;7.60;;;;;;;35.41;33.72;99803.96;107785;1260;61279;-83
2023/08/30 10:27:07;;;;;;;8.80;7.60;;;;;;;35.42;33.38;99805.56;107891;1257;61311;-79
2023/08/30 10:29:35;;;;;;;9.80;7.60;;;;;;;35.45;33.65;99806.05;107703;1259;65766;-77
2023/08/30 10:32:04;;;;;;;9.90;7.40;;;;;;;35.47;33.65;99810.73;107991;1257;64198;-80
2023/08/30 10:34:35;;;;;;;8.90;7.60;;;;;;;35.49;33.29;99806.54;107716;1257;63844;-80
2023/08/30 10:37:06;;;;;;;8.00;7.20;;;;;;;35.50;33.03;99797.00;107874;1257;61295;-78
2023/08/30 10:39:40;;;;;;;10.10;7.60;;;;;;;35.51;33.09;99796.09;107815;1257;61100;-77
2023/08/30 10:42:15;;;;;;;8.10;7.20;;;;;;;35.52;32.42;99786.46;107790;1257;65854;-79
2023/08/30 10:44:57;;;;;;;9.60;7.50;;;;;;;35.51;32.37;99785.05;108330;1257;63783;-79
2023/08/30 10:47:40;;;;;;;8.90;7.10;;;;;;;35.51;32.61;99786.33;107779;1257;63865;-78
2023/08/30 10:50:12;;;;;;;8.90;7.50;;;;;;;35.55;32.98;99786.13;107799;1257;61117;-78
2023/08/30 10:52:40;;;;;;;7.90;6.90;;;;;;;35.60;33.11;99791.53;107790;1256;60953;-81
2023/08/30 10:55:13;;;;;;;10.60;7.70;;;;;;;35.63;33.15;99784.23;107737;1256;64539;-80
2023/08/30 10:57:43;;;;;;;10.20;7.80;;;;;;;35.60;33.04;99779.94;107762;1257;64043;-82
2023/08/30 11:00:20;;;;;;;9.10;7.30;;;;;;;35.58;32.64;99777.81;107853;1256;65954;-80
2023/08/30 11:02:49;;;;;;;10.40;7.40;;;;;;;35.58;32.72;99776.95;107661;1256;61558;-79
2023/08/30 11:05:19;;;;;;;10.90;7.60;;;;;;;35.57;32.83;99771.02;107582;1255;61141;-83
2023/08/30 11:07:49;;;;;;;11.30;7.60;;;;;;;35.58;33.02;99762.71;107720;1257;64527;-82
2023/08/30 11:10:18;;;;;;;9.80;6.90;;;;;;;35.60;32.66;99759.15;107651;1256;63781;-79
2023/08/30 11:12:45;;;;;;;8.80;7.20;;;;;;;35.61;32.52;99752.99;107645;1257;74048;-83
2023/08/30 11:15:14;;;;;;;10.20;7.20;;;;;;;35.60;32.43;99751.05;107795;1257;61260;-79
2023/08/30 11:17:42;;;;;;;9.10;7.50;;;;;;;35.53;32.34;99749.23;107412;1257;61243;-80
2023/08/30 11:20:12;;;;;;;7.50;6.70;;;;;;;35.52;31.98;99743.08;107590;1257;64563;-78
2023/08/30 11:22:44;;;;;;;8.40;6.60;;;;;;;35.52;32.30;99735.85;107673;1259;72348;-77